Time;durP1;ratioP1;P1;durP2;ratioP2;P2;SDS_P1;SDS_P2;PMS_P1;PMS_P2;Temp;Humidity;BMP_temperature;BMP_pressure;BME280_temperature;BME280_humidity;BME280_pressure;Samples;Min_cycle;Max_cycle;Signal;HPM_P1;HPM_P2
2023/04/01 03:01:39;;;;;;;1.93;0.70;;;8.10;89.90;;;;;;5554392;23;21081;-73
2023/04/01 03:04:06;;;;;;;1.87;0.60;;;8.10;89.80;;;;;;4974225;28;20489;-73
2023/04/01 03:06:32;;;;;;;2.00;0.70;;;8.30;89.80;;;;;;4974386;28;20545;-74
2023/04/01 03:08:59;;;;;;;1.90;0.60;;;8.20;89.10;;;;;;4974349;28;20450;-74
2023/04/01 03:11:26;;;;;;;2.10;0.60;;;8.10;89.30;;;;;;4973874;28;20920;-74
2023/04/01 03:13:53;;;;;;;2.00;0.70;;;8.20;89.60;;;;;;4975112;28;20548;-74
2023/04/01 03:16:19;;;;;;;2.30;0.70;;;8.20;89.20;;;;;;4974014;28;20439;-74
2023/04/01 03:18:49;;;;;;;2.97;0.80;;;8.20;89.00;;;;;;4974227;28;20450;-74
2023/04/01 03:21:17;;;;;;;2.20;0.83;;;8.10;89.40;;;;;;4974105;28;20509;-74
2023/04/01 03:23:43;;;;;;;1.90;0.60;;;8.10;89.90;;;;;;4974043;28;20886;-74
2023/04/01 03:26:10;;;;;;;2.10;0.70;;;8.10;89.50;;;;;;4976082;28;20457;-74
2023/04/01 03:28:37;;;;;;;1.83;0.60;;;8.10;89.50;;;;;;4978087;28;20493;-73
2023/04/01 03:31:03;;;;;;;1.90;0.60;;;8.10;89.80;;;;;;4977487;28;20989;-73
2023/04/01 03:33:30;;;;;;;2.10;0.60;;;8.10;89.50;;;;;;4978363;28;20500;-74
2023/04/01 03:35:58;;;;;;;1.90;0.60;;;8.20;89.30;;;;;;4977849;28;20513;-73
2023/04/01 03:38:25;;;;;;;2.50;0.73;;;8.10;89.40;;;;;;4977766;28;20458;-73
2023/04/01 03:40:52;;;;;;;1.80;0.60;;;8.20;89.10;;;;;;4977694;28;20474;-74
2023/04/01 03:43:18;;;;;;;1.80;0.60;;;8.30;89.10;;;;;;4977595;28;20489;-74
2023/04/01 03:45:45;;;;;;;2.20;0.70;;;8.30;88.50;;;;;;4977596;28;20497;-74
2023/04/01 03:48:12;;;;;;;2.00;0.80;;;8.30;88.30;;;;;;4977567;28;20453;-74
2023/04/01 03:50:39;;;;;;;1.83;0.60;;;8.30;88.30;;;;;;4977197;28;20960;-74
2023/04/01 03:53:07;;;;;;;1.90;0.60;;;8.30;88.20;;;;;;4977434;28;20505;-74
2023/04/01 03:55:35;;;;;;;2.17;0.70;;;8.30;88.10;;;;;;4977412;28;20449;-73
2023/04/01 03:58:02;;;;;;;1.90;0.70;;;8.30;87.60;;;;;;4977360;28;20462;-74
2023/04/01 04:00:30;;;;;;;2.27;0.70;;;8.20;87.90;;;;;;4976864;28;20513;-73
2023/04/01 04:02:57;;;;;;;2.00;0.60;;;8.00;87.80;;;;;;4977189;28;20528;-74
2023/04/01 04:05:24;;;;;;;2.30;0.80;;;8.00;88.00;;;;;;4976966;28;20491;-73
2023/04/01 04:07:51;;;;;;;2.00;0.80;;;8.00;88.10;;;;;;4977478;28;20451;-73
2023/04/01 04:10:22;;;;;;;2.30;0.60;;;7.90;88.40;;;;;;4977899;28;20504;-73
2023/04/01 04:12:50;;;;;;;1.80;0.60;;;8.00;87.80;;;;;;4977931;28;20540;-73
2023/04/01 04:15:17;;;;;;;1.90;0.60;;;8.00;87.60;;;;;;4977802;28;20505;-73
2023/04/01 04:17:45;;;;;;;2.20;0.70;;;8.00;87.70;;;;;;4977559;28;20959;-73
2023/04/01 04:20:12;;;;;;;3.07;0.73;;;7.90;87.60;;;;;;4977261;28;20533;-73
2023/04/01 04:22:39;;;;;;;2.60;0.70;;;7.90;87.90;;;;;;4976853;28;20498;-73
2023/04/01 04:25:06;;;;;;;2.10;0.70;;;7.90;87.90;;;;;;4976830;28;20525;-73
2023/04/01 04:27:34;;;;;;;1.90;0.60;;;8.00;88.00;;;;;;4976872;28;20509;-74
2023/04/01 04:30:01;;;;;;;1.90;0.60;;;7.90;87.60;;;;;;4976765;28;20454;-73
2023/04/01 04:32:28;;;;;;;2.00;0.70;;;7.90;87.90;;;;;;4976641;28;20949;-73
2023/04/01 04:34:54;;;;;;;3.30;1.30;;;7.80;88.30;;;;;;4976341;28;20944;-73
2023/04/01 04:37:21;;;;;;;1.90;0.70;;;7.90;88.40;;;;;;4975513;28;20462;-74
2023/04/01 04:39:48;;;;;;;1.90;0.60;;;7.80;88.10;;;;;;4976561;28;20461;-73
2023/04/01 04:42:14;;;;;;;2.10;0.70;;;7.80;88.60;;;;;;4976516;28;20474;-73
2023/04/01 04:44:42;;;;;;;1.90;0.60;;;7.60;89.30;;;;;;4976387;28;20482;-73
2023/04/01 04:47:10;;;;;;;2.00;0.70;;;7.60;89.80;;;;;;4976444;28;20446;-73
2023/04/01 04:49:36;;;;;;;3.03;0.70;;;7.60;90.00;;;;;;4976974;28;20486;-73
2023/04/01 04:52:03;;;;;;;2.97;0.90;;;7.60;90.00;;;;;;4976568;28;20470;-73
2023/04/01 04:54:30;;;;;;;3.00;0.83;;;7.80;89.90;;;;;;4976343;28;20457;-73
2023/04/01 04:56:57;;;;;;;4.43;0.97;;;7.90;89.50;;;;;;4976512;28;20513;-73
2023/04/01 04:59:23;;;;;;;2.53;1.00;;;8.10;88.90;;;;;;4976380;28;20450;-73
2023/04/01 05:01:51;;;;;;;2.90;0.90;;;8.00;88.80;;;;;;4975924;28;20541;-73
2023/04/01 05:04:18;;;;;;;1.90;0.80;;;8.00;89.10;;;;;;4976165;28;20508;-73
2023/04/01 05:06:45;;;;;;;2.00;0.80;;;7.90;89.40;;;;;;4976156;28;20461;-74
2023/04/01 05:09:12;;;;;;;2.83;1.00;;;7.80;90.30;;;;;;4975853;28;20549;-74
2023/04/01 05:11:38;;;;;;;2.93;0.80;;;7.90;90.00;;;;;;4975713;28;20819;-73
2023/04/01 05:14:05;;;;;;;2.20;0.80;;;7.80;90.70;;;;;;4975958;28;20443;-73
2023/04/01 05:16:32;;;;;;;2.10;0.80;;;7.90;90.50;;;;;;4976127;28;20450;-74
2023/04/01 05:19:00;;;;;;;2.20;1.00;;;7.90;90.30;;;;;;4976022;28;20488;-73
2023/04/01 05:21:26;;;;;;;3.10;1.10;;;7.90;90.50;;;;;;4975919;28;20524;-74
2023/04/01 05:23:53;;;;;;;5.43;1.10;;;7.90;90.40;;;;;;4975661;28;20552;-74
2023/04/01 05:26:20;;;;;;;2.67;0.87;;;7.80;90.40;;;;;;4975854;28;21052;-74
2023/04/01 05:28:46;;;;;;;2.63;0.90;;;7.90;90.60;;;;;;4993789;28;20886;-74
2023/04/01 05:31:13;;;;;;;1.90;0.80;;;8.00;89.80;;;;;;4991487;28;20467;-74
2023/04/01 05:33:40;;;;;;;2.17;0.93;;;8.00;89.60;;;;;;4978054;28;20501;-73
2023/04/01 05:36:10;;;;;;;4.10;1.30;;;8.10;89.30;;;;;;4977427;28;20453;-73
2023/04/01 05:38:37;;;;;;;2.10;0.80;;;8.10;88.60;;;;;;4976940;28;20453;-74
2023/04/01 05:41:05;;;;;;;1.93;0.67;;;8.30;88.80;;;;;;4977245;28;20473;-74
2023/04/01 05:43:31;;;;;;;1.90;0.70;;;8.40;87.90;;;;;;4976835;28;20995;-73
2023/04/01 05:45:58;;;;;;;3.03;1.00;;;8.40;87.90;;;;;;4976421;28;20450;-74
2023/04/01 05:48:25;;;;;;;2.50;0.90;;;8.60;87.30;;;;;;4976019;28;20486;-73
2023/04/01 05:50:52;;;;;;;2.20;0.80;;;8.80;90.80;;;;;;4976200;28;20529;-74
2023/04/01 05:53:20;;;;;;;2.00;0.80;;;9.10;88.00;;;;;;4976065;28;20521;-74
2023/04/01 05:55:46;;;;;;;2.10;0.70;;;9.40;86.20;;;;;;4975673;28;20489;-74
2023/04/01 05:58:13;;;;;;;2.40;0.70;;;9.50;83.50;;;;;;4975515;28;20450;-74
2023/04/01 06:00:40;;;;;;;2.10;0.70;;;9.80;83.10;;;;;;4975183;28;20462;-73
2023/04/01 06:03:06;;;;;;;3.73;1.10;;;9.90;81.50;;;;;;4975631;28;20472;-73
2023/04/01 06:05:40;;;;;;;1.90;0.70;;;10.00;80.70;;;;;;4975025;28;21029;-73
2023/04/01 06:08:11;;;;;;;2.33;0.80;;;10.20;80.90;;;;;;4975054;28;20434;-73
2023/04/01 06:10:50;;;;;;;1.90;0.70;;;10.50;79.20;;;;;;4974935;28;20919;-75
2023/04/01 06:13:31;;;;;;;1.90;0.70;;;10.50;78.10;;;;;;4975197;28;20423;-73
2023/04/01 06:16:08;;;;;;;3.50;0.90;;;10.20;80.10;;;;;;4974898;28;20978;-74
2023/04/01 06:18:51;;;;;;;2.20;0.80;;;10.60;79.10;;;;;;4975107;28;20447;-74
2023/04/01 06:21:38;;;;;;;1.87;0.73;;;10.80;77.90;;;;;;4975024;28;20474;-74
2023/04/01 06:24:29;;;;;;;2.20;0.80;;;10.70;77.30;;;;;;4974833;28;20497;-74
2023/04/01 06:27:03;;;;;;;2.30;0.73;;;10.90;78.10;;;;;;4974970;28;20430;-73
2023/04/01 06:29:47;;;;;;;2.00;0.77;;;11.20;76.80;;;;;;4974736;28;20435;-74
2023/04/01 06:32:38;;;;;;;2.50;0.80;;;11.00;75.80;;;;;;4974693;28;20470;-74
2023/04/01 06:35:20;;;;;;;1.93;0.63;;;10.60;76.90;;;;;;4974833;28;20482;-74
2023/04/01 06:38:19;;;;;;;1.90;0.70;;;10.10;79.50;;;;;;4974518;28;20907;-74
2023/04/01 06:41:15;;;;;;;2.70;0.80;;;10.00;80.10;;;;;;4974513;28;20474;-74
2023/04/01 06:43:59;;;;;;;2.23;0.70;;;9.70;80.50;;;;;;4974704;28;20467;-76
2023/04/01 06:46:37;;;;;;;2.30;0.80;;;9.30;82.00;;;;;;4974467;28;20900;-76
2023/04/01 06:49:18;;;;;;;2.37;0.80;;;9.20;83.60;;;;;;4974651;28;20434;-75
2023/04/01 06:51:54;;;;;;;1.90;0.67;;;9.20;83.80;;;;;;4975042;28;20513;-75
2023/04/01 06:54:26;;;;;;;3.60;0.80;;;9.30;83.60;;;;;;4974322;28;20867;-75
2023/04/01 06:56:59;;;;;;;2.00;0.70;;;9.30;83.20;;;;;;4974676;28;20978;-75
2023/04/01 06:59:31;;;;;;;2.10;0.97;;;9.20;83.50;;;;;;4974871;28;20434;-75
2023/04/01 07:02:01;;;;;;;3.43;0.83;;;9.30;83.90;;;;;;4977977;28;20983;-74
2023/04/01 07:04:31;;;;;;;3.00;0.77;;;9.40;84.00;;;;;;4978842;28;20485;-75
2023/04/01 07:07:01;;;;;;;2.30;0.70;;;9.40;83.00;;;;;;4979591;28;20439;-75
2023/04/01 07:09:32;;;;;;;2.50;0.80;;;9.40;83.40;;;;;;4978452;28;20458;-74
2023/04/01 07:12:03;;;;;;;2.10;0.70;;;9.50;83.20;;;;;;4978391;28;20474;-74
2023/04/01 07:14:34;;;;;;;3.60;0.70;;;9.40;83.20;;;;;;4978025;28;20445;-76
2023/04/01 07:17:08;;;;;;;2.10;0.70;;;9.30;83.60;;;;;;4978407;28;20442;-76
2023/04/01 07:19:43;;;;;;;2.10;0.80;;;9.40;83.60;;;;;;4978283;28;20434;-76
2023/04/01 07:22:22;;;;;;;1.90;0.70;;;9.50;84.00;;;;;;4978331;28;20481;-75
2023/04/01 07:24:49;;;;;;;1.90;0.70;;;9.50;83.50;;;;;;4978115;28;20470;-76
2023/04/01 07:27:16;;;;;;;1.97;0.70;;;9.40;83.30;;;;;;4978199;28;20512;-76
2023/04/01 07:29:44;;;;;;;1.90;0.70;;;9.20;83.90;;;;;;4978170;28;20458;-77
2023/04/01 07:32:24;;;;;;;3.90;0.80;;;9.20;84.10;;;;;;4977953;28;20482;-78
2023/04/01 07:35:03;;;;;;;2.00;0.70;;;9.00;85.10;;;;;;4978108;28;20434;-76
2023/04/01 07:37:34;;;;;;;2.10;0.80;;;9.00;85.10;;;;;;4977561;28;20417;-74
2023/04/01 07:40:13;;;;;;;1.97;0.70;;;9.10;85.10;;;;;;4977850;28;20434;-74
2023/04/01 07:42:54;;;;;;;2.50;0.70;;;9.10;85.30;;;;;;4977700;28;20564;-75
2023/04/01 07:45:29;;;;;;;1.80;0.60;;;9.20;84.90;;;;;;4977720;28;20520;-73
2023/04/01 07:48:13;;;;;;;3.63;0.87;;;9.30;85.40;;;;;;4977693;28;20488;-73
2023/04/01 07:50:47;;;;;;;2.00;0.70;;;9.40;85.10;;;;;;4977739;28;20461;-75
2023/04/01 07:53:20;;;;;;;3.70;0.70;;;9.50;83.90;;;;;;4977716;28;20439;-74
2023/04/01 07:55:52;;;;;;;2.50;1.00;;;9.50;84.20;;;;;;4979036;28;20488;-79
2023/04/01 07:58:25;;;;;;;2.00;0.80;;;9.50;84.50;;;;;;4978124;28;20438;-78
2023/04/01 08:01:01;;;;;;;2.20;0.80;;;9.60;84.60;;;;;;4979345;28;20528;-79
2023/04/01 08:03:38;;;;;;;2.03;0.80;;;9.40;84.50;;;;;;4978426;28;20441;-78
2023/04/01 08:06:16;;;;;;;2.30;0.87;;;9.50;85.30;;;;;;4978465;28;20492;-78
2023/04/01 08:08:52;;;;;;;1.90;0.70;;;9.50;84.70;;;;;;4980927;28;20437;-79
2023/04/01 08:11:35;;;;;;;2.30;0.90;;;9.60;84.50;;;;;;4984855;28;20469;-79
2023/04/01 08:14:12;;;;;;;2.20;0.80;;;9.60;84.60;;;;;;4977592;28;20490;-77
2023/04/01 08:16:47;;;;;;;2.00;0.70;;;9.60;84.80;;;;;;4977965;28;20430;-79
2023/04/01 08:19:30;;;;;;;3.60;1.43;;;9.50;84.80;;;;;;4977605;28;20438;-79
2023/04/01 08:22:04;;;;;;;2.20;0.80;;;9.50;86.20;;;;;;4977270;28;20479;-74
2023/04/01 08:24:36;;;;;;;2.00;0.80;;;9.50;85.70;;;;;;4977669;28;20522;-76
2023/04/01 08:27:13;;;;;;;2.80;0.80;;;9.60;86.10;;;;;;4977208;28;20438;-75
2023/04/01 08:29:45;;;;;;;3.07;0.80;;;9.60;84.90;;;;;;4977236;28;20798;-77
2023/04/01 08:32:17;;;;;;;2.23;0.70;;;9.50;85.70;;;;;;4977377;28;20516;-77
2023/04/01 08:34:49;;;;;;;2.60;0.77;;;9.60;85.50;;;;;;4976872;28;20434;-77
2023/04/01 08:37:21;;;;;;;2.10;0.70;;;9.50;85.50;;;;;;4977534;28;20525;-75
2023/04/01 08:39:51;;;;;;;1.80;0.60;;;9.50;85.80;;;;;;4976802;28;20525;-75
2023/04/01 08:42:42;;;;;;;2.00;0.70;;;9.50;86.10;;;;;;4976622;28;20474;-75
2023/04/01 08:45:23;;;;;;;1.90;0.80;;;9.40;86.70;;;;;;4976561;28;20482;-75
2023/04/01 08:48:23;;;;;;;2.00;0.70;;;9.50;86.80;;;;;;4976623;28;20497;-75
2023/04/01 08:51:13;;;;;;;2.27;0.73;;;9.60;86.40;;;;;;4976458;28;20470;-75
2023/04/01 08:54:06;;;;;;;1.80;0.60;;;9.70;86.50;;;;;;4976553;28;20810;-76
2023/04/01 08:56:37;;;;;;;2.27;0.83;;;9.60;86.30;;;;;;4976116;28;20494;-74
2023/04/01 08:59:33;;;;;;;1.90;0.70;;;9.60;87.10;;;;;;4976100;28;20947;-75
2023/04/01 09:02:18;;;;;;;2.00;0.60;;;9.60;86.90;;;;;;4975976;28;20560;-76
2023/04/01 09:05:13;;;;;;;1.93;0.80;;;9.50;86.80;;;;;;4976349;28;20469;-76
2023/04/01 09:07:51;;;;;;;2.23;0.90;;;9.40;86.90;;;;;;4976047;28;20884;-77
2023/04/01 09:10:45;;;;;;;2.20;0.90;;;9.40;87.70;;;;;;4976201;28;20497;-76
2023/04/01 09:13:49;;;;;;;1.80;0.60;;;9.20;87.50;;;;;;4976146;28;20489;-76
2023/04/01 09:16:28;;;;;;;1.83;0.60;;;9.30;87.30;;;;;;4952707;28;20469;-75
2023/04/01 09:19:32;;;;;;;2.40;0.70;;;9.40;87.50;;;;;;4975897;28;21048;-77
2023/04/01 09:22:25;;;;;;;2.00;0.70;;;9.80;88.70;;;;;;4972370;28;20533;-77
2023/04/01 09:25:15;;;;;;;1.90;0.70;;;9.90;86.10;;;;;;4970607;28;20514;-75
2023/04/01 09:27:46;;;;;;;1.80;0.60;;;9.90;86.00;;;;;;4975901;28;20430;-76
2023/04/01 09:30:46;;;;;;;1.90;0.70;;;10.00;86.00;;;;;;4975710;28;20442;-76
2023/04/01 09:33:41;;;;;;;1.93;0.73;;;10.10;86.10;;;;;;4975827;28;20478;-76
2023/04/01 09:36:19;;;;;;;1.73;0.50;;;10.40;85.10;;;;;;4975424;28;21016;-77
2023/04/01 09:38:57;;;;;;;2.10;0.70;;;10.40;82.70;;;;;;4975759;28;20792;-77
2023/04/01 09:41:30;;;;;;;1.80;0.60;;;10.40;82.90;;;;;;4975231;28;20450;-76
2023/04/01 09:44:03;;;;;;;2.00;0.70;;;10.30;83.00;;;;;;4975443;28;20434;-77
2023/04/01 09:46:57;;;;;;;1.80;0.60;;;10.10;83.60;;;;;;4975491;28;20460;-75
2023/04/01 09:49:46;;;;;;;2.20;0.67;;;10.10;84.10;;;;;;4972002;28;20461;-75
2023/04/01 09:52:31;;;;;;;1.90;0.67;;;10.20;84.10;;;;;;4977735;28;20478;-75
2023/04/01 09:55:22;;;;;;;1.80;0.60;;;10.20;83.30;;;;;;4977995;28;20759;-79
2023/04/01 09:58:40;;;;;;;1.80;0.60;;;10.00;83.60;;;;;;4977520;28;20454;-80
2023/04/01 10:01:34;;;;;;;1.90;0.63;;;10.10;83.90;;;;;;4951445;28;20962;-78
2023/04/01 10:04:32;;;;;;;1.80;0.60;;;10.00;83.30;;;;;;4976220;28;20447;-79
2023/04/01 10:07:46;;;;;;;1.80;0.50;;;10.00;82.70;;;;;;4975357;28;20466;-78
2023/04/01 10:10:59;;;;;;;1.80;0.60;;;9.90;82.80;;;;;;4964794;28;20457;-78
2023/04/01 10:14:09;;;;;;;1.77;0.60;;;10.00;83.80;;;;;;4975352;28;20442;-78
2023/04/01 10:17:18;;;;;;;1.80;0.60;;;9.90;82.50;;;;;;4974974;28;20521;-77
2023/04/01 10:20:03;;;;;;;2.30;0.60;;;10.00;83.50;;;;;;4974953;28;20450;-77
2023/04/01 10:22:50;;;;;;;2.00;0.63;;;10.00;82.20;;;;;;4974912;28;20474;-77
2023/04/01 10:25:40;;;;;;;2.40;0.73;;;10.10;81.40;;;;;;4974830;28;20477;-76
2023/04/01 10:28:48;;;;;;;2.10;0.70;;;10.10;81.60;;;;;;4974825;28;20438;-77
2023/04/01 10:31:50;;;;;;;1.80;0.60;;;10.20;81.30;;;;;;4977070;28;20474;-77
2023/04/01 10:34:52;;;;;;;1.83;0.60;;;10.30;82.00;;;;;;4978403;28;20466;-77
2023/04/01 10:37:45;;;;;;;1.80;0.60;;;10.40;80.50;;;;;;4959555;28;20453;-77
2023/04/01 10:40:58;;;;;;;2.10;0.60;;;10.40;80.00;;;;;;4976061;28;20485;-77
2023/04/01 10:44:15;;;;;;;2.50;0.60;;;10.30;80.30;;;;;;4935425;29;20432;-77
2023/04/01 10:47:20;;;;;;;1.80;0.60;;;10.40;79.30;;;;;;4858921;29;20988;-76
2023/04/01 10:50:12;;;;;;;1.80;0.60;;;10.20;79.50;;;;;;4915290;29;20879;-77
2023/04/01 10:53:08;;;;;;;1.90;0.70;;;10.40;79.70;;;;;;4963545;28;20482;-77
2023/04/01 10:56:03;;;;;;;1.73;0.60;;;10.60;79.30;;;;;;4974464;28;20438;-76
2023/04/01 10:59:11;;;;;;;1.80;0.60;;;10.50;78.90;;;;;;4974624;28;20435;-76
2023/04/01 11:02:16;;;;;;;1.90;0.60;;;10.40;79.70;;;;;;4974198;28;20478;-76
2023/04/01 11:05:21;;;;;;;1.80;0.60;;;10.20;79.50;;;;;;4974955;28;20481;-76
2023/04/01 11:08:21;;;;;;;1.87;0.60;;;10.30;81.00;;;;;;4974957;28;20453;-76
2023/04/01 11:11:18;;;;;;;2.37;0.60;;;10.40;79.80;;;;;;4974680;28;20987;-77
2023/04/01 11:14:22;;;;;;;1.80;0.60;;;10.40;80.20;;;;;;4975159;28;20427;-77
2023/04/01 11:17:16;;;;;;;1.90;0.60;;;10.40;80.40;;;;;;4975662;28;20419;-77
2023/04/01 11:20:15;;;;;;;1.80;0.60;;;10.70;80.10;;;;;;4974968;28;20954;-77
2023/04/01 11:23:08;;;;;;;1.80;0.60;;;10.90;79.70;;;;;;4974320;28;20493;-78
2023/04/01 11:26:16;;;;;;;2.00;0.70;;;10.90;78.00;;;;;;4974406;28;20898;-78
2023/04/01 11:29:04;;;;;;;1.70;0.50;;;10.60;78.20;;;;;;4962826;28;20447;-78
2023/04/01 11:31:42;;;;;;;1.80;0.60;;;10.50;78.60;;;;;;4974343;28;20470;-71
2023/04/01 11:34:32;;;;;;;1.80;0.60;;;10.50;78.50;;;;;;4974140;28;20824;-72
2023/04/01 11:37:10;;;;;;;2.20;0.60;;;10.70;78.20;;;;;;4974051;28;20501;-73
2023/04/01 11:39:51;;;;;;;1.80;0.60;;;10.60;78.00;;;;;;4973861;28;20908;-73
2023/04/01 11:42:27;;;;;;;1.90;0.60;;;10.60;77.20;;;;;;4973662;28;20987;-73
2023/04/01 11:45:08;;;;;;;1.80;0.70;;;10.60;77.80;;;;;;4974028;28;20512;-73
2023/04/01 11:47:52;;;;;;;1.80;0.60;;;10.70;77.20;;;;;;4976444;28;20485;-72
2023/04/01 11:50:28;;;;;;;2.00;0.60;;;10.50;78.10;;;;;;4977377;28;20917;-72
2023/04/01 11:53:17;;;;;;;1.77;0.50;;;10.80;77.50;;;;;;4977602;28;20525;-73
2023/04/01 11:55:54;;;;;;;1.73;0.60;;;10.60;77.90;;;;;;4977490;28;20434;-73
2023/04/01 11:58:32;;;;;;;1.80;0.60;;;10.60;78.70;;;;;;4977110;28;20847;-72
2023/04/01 12:01:09;;;;;;;1.80;0.60;;;10.70;78.00;;;;;;4977071;28;20999;-74
2023/04/01 12:03:55;;;;;;;1.80;0.60;;;10.80;78.00;;;;;;4977077;28;20442;-73
2023/04/01 12:06:26;;;;;;;1.90;0.60;;;10.70;77.60;;;;;;4977324;28;20516;-74
2023/04/01 12:09:01;;;;;;;1.90;0.60;;;10.80;78.00;;;;;;4977295;28;20529;-74
2023/04/01 12:11:36;;;;;;;1.90;0.60;;;10.90;77.60;;;;;;4977299;28;20474;-73
2023/04/01 12:14:11;;;;;;;1.80;0.60;;;11.10;77.20;;;;;;4977923;28;20449;-73
2023/04/01 12:16:47;;;;;;;1.80;0.60;;;11.20;77.20;;;;;;4977873;28;20489;-73
2023/04/01 12:19:20;;;;;;;1.80;0.70;;;11.40;76.70;;;;;;4978397;28;20430;-74
2023/04/01 12:21:59;;;;;;;1.80;0.63;;;11.50;75.90;;;;;;4978598;28;20474;-74
2023/04/01 12:24:59;;;;;;;1.80;0.60;;;11.70;75.10;;;;;;4977488;28;20525;-74
2023/04/01 12:27:36;;;;;;;1.77;0.60;;;11.80;76.10;;;;;;4939311;29;20428;-73
2023/04/01 12:30:40;;;;;;;1.80;0.60;;;11.70;74.20;;;;;;4974294;28;20975;-73
2023/04/01 12:33:29;;;;;;;1.70;0.60;;;11.70;75.10;;;;;;4970439;28;20458;-73
2023/04/01 12:36:08;;;;;;;1.77;0.60;;;11.80;75.90;;;;;;4977066;28;20900;-74
2023/04/01 12:38:45;;;;;;;1.70;0.60;;;11.80;75.60;;;;;;4977041;28;20446;-74
2023/04/01 12:41:22;;;;;;;2.17;0.77;;;11.50;75.40;;;;;;4976956;28;21084;-73
2023/04/01 12:44:03;;;;;;;1.70;0.60;;;11.40;76.40;;;;;;4977150;28;20438;-73
2023/04/01 12:46:37;;;;;;;1.70;0.60;;;11.30;77.20;;;;;;4977262;28;20466;-73
2023/04/01 12:49:39;;;;;;;1.80;0.60;;;11.10;76.90;;;;;;4977302;28;20438;-73
2023/04/01 12:52:10;;;;;;;1.80;0.60;;;11.30;77.90;;;;;;4976916;28;20904;-73
2023/04/01 12:54:58;;;;;;;1.80;0.70;;;11.70;76.70;;;;;;4977195;28;20450;-74
2023/04/01 12:57:44;;;;;;;1.90;0.60;;;12.20;75.30;;;;;;4976581;28;20445;-74
2023/04/01 13:00:28;;;;;;;2.00;0.60;;;12.50;73.60;;;;;;4977609;28;20434;-74
2023/04/01 13:03:11;;;;;;;1.80;0.60;;;12.60;72.70;;;;;;4976516;28;20931;-73
2023/04/01 13:06:10;;;;;;;1.80;0.60;;;12.50;72.90;;;;;;4976588;28;20481;-74
2023/04/01 13:08:45;;;;;;;1.90;0.70;;;12.20;72.30;;;;;;4976714;28;20434;-74
2023/04/01 13:11:21;;;;;;;1.80;0.60;;;12.10;73.60;;;;;;4976498;28;20465;-74
2023/04/01 13:14:27;;;;;;;1.77;0.60;;;12.00;73.30;;;;;;4976638;28;20521;-74
2023/04/01 13:16:58;;;;;;;1.80;0.60;;;12.00;73.40;;;;;;4976992;28;20482;-74
2023/04/01 13:19:32;;;;;;;1.80;0.60;;;12.10;74.00;;;;;;4976962;28;20529;-74
2023/04/01 13:22:07;;;;;;;1.70;0.60;;;12.10;73.40;;;;;;4977357;28;20469;-74
2023/04/01 13:24:46;;;;;;;1.73;0.60;;;11.90;73.70;;;;;;4978010;28;20434;-74
2023/04/01 13:27:19;;;;;;;1.70;0.50;;;12.10;75.20;;;;;;4978323;28;20564;-74
2023/04/01 13:29:57;;;;;;;1.80;0.60;;;12.10;73.40;;;;;;4978832;28;20449;-73
2023/04/01 13:32:34;;;;;;;1.80;0.60;;;12.00;73.90;;;;;;4978651;28;20667;-74
2023/04/01 13:35:14;;;;;;;1.70;0.50;;;12.00;74.20;;;;;;4979389;28;20477;-73
2023/04/01 13:37:54;;;;;;;1.70;0.60;;;11.70;74.50;;;;;;4978785;28;20916;-74
2023/04/01 13:40:35;;;;;;;2.67;0.70;;;11.70;74.70;;;;;;4980898;28;20438;-75
2023/04/01 13:43:05;;;;;;;1.80;0.60;;;11.80;75.60;;;;;;4980268;28;20470;-74
2023/04/01 13:45:43;;;;;;;1.70;0.60;;;11.70;75.10;;;;;;4980239;28;20478;-73
2023/04/01 13:48:29;;;;;;;1.70;0.60;;;11.80;74.70;;;;;;4979912;28;20454;-73
2023/04/01 13:51:21;;;;;;;1.90;0.70;;;11.70;75.10;;;;;;4979787;28;20470;-73
2023/04/01 13:54:10;;;;;;;1.70;0.60;;;11.90;75.10;;;;;;4978928;28;20493;-74
2023/04/01 13:56:46;;;;;;;1.77;0.60;;;12.10;75.40;;;;;;4976496;28;20435;-74
2023/04/01 13:59:32;;;;;;;1.70;0.60;;;12.30;73.70;;;;;;4975420;28;20920;-73
2023/04/01 14:02:14;;;;;;;2.63;0.70;;;12.20;74.40;;;;;;4975271;28;20485;-74
2023/04/01 14:04:54;;;;;;;1.77;0.60;;;12.30;74.50;;;;;;4975292;28;20909;-73
2023/04/01 14:07:37;;;;;;;1.73;0.60;;;12.40;74.30;;;;;;4975544;28;20470;-74
2023/04/01 14:10:20;;;;;;;2.00;0.80;;;12.70;73.80;;;;;;4974945;28;20627;-74
2023/04/01 14:12:58;;;;;;;1.80;0.60;;;12.80;72.70;;;;;;4974766;28;20840;-74
2023/04/01 14:15:40;;;;;;;1.80;0.60;;;12.90;72.20;;;;;;4975022;28;20435;-73
2023/04/01 14:18:31;;;;;;;2.00;0.80;;;12.60;73.10;;;;;;4974906;28;20492;-73
2023/04/01 14:21:14;;;;;;;1.90;0.70;;;12.30;74.00;;;;;;4974579;28;20891;-74
2023/04/01 14:24:22;;;;;;;1.77;0.70;;;12.10;74.30;;;;;;4974909;28;20485;-73
2023/04/01 14:27:19;;;;;;;1.70;0.60;;;12.00;75.70;;;;;;4963379;28;20525;-74
2023/04/01 14:30:04;;;;;;;1.83;0.70;;;11.90;75.20;;;;;;4975074;28;20439;-73
2023/04/01 14:32:40;;;;;;;1.73;0.57;;;11.80;75.10;;;;;;4975016;28;20493;-73
2023/04/01 14:35:25;;;;;;;2.20;0.60;;;11.80;75.20;;;;;;4975318;28;20457;-73
2023/04/01 14:38:05;;;;;;;1.90;0.80;;;11.80;76.50;;;;;;4974712;28;20461;-73
2023/04/01 14:40:50;;;;;;;2.10;0.70;;;11.60;75.90;;;;;;4975612;28;20430;-73
2023/04/01 14:43:48;;;;;;;1.80;0.60;;;11.70;76.00;;;;;;4975460;28;20430;-73
2023/04/01 14:46:45;;;;;;;1.77;0.60;;;11.30;76.00;;;;;;4975154;28;20944;-74
2023/04/01 14:49:20;;;;;;;1.77;0.60;;;11.30;76.70;;;;;;4958695;28;20939;-73
2023/04/01 14:51:47;;;;;;;1.80;0.60;;;11.50;75.60;;;;;;4975119;28;20461;-74
2023/04/01 14:54:22;;;;;;;1.90;0.70;;;11.50;75.90;;;;;;4975106;28;20449;-74
2023/04/01 14:56:51;;;;;;;1.70;0.50;;;11.50;75.30;;;;;;4975116;28;20524;-73
2023/04/01 14:59:28;;;;;;;1.80;0.60;;;11.50;74.70;;;;;;4975103;28;20461;-73
2023/04/01 15:02:02;;;;;;;1.80;0.60;;;11.40;75.20;;;;;;4974933;28;20490;-72
2023/04/01 15:04:50;;;;;;;1.77;0.60;;;11.30;74.80;;;;;;4975320;28;20426;-73
2023/04/01 15:07:32;;;;;;;1.73;0.60;;;11.40;74.80;;;;;;4975063;28;20481;-74
2023/04/01 15:10:03;;;;;;;1.80;0.60;;;11.40;75.00;;;;;;4974955;28;20434;-73
2023/04/01 15:12:37;;;;;;;1.77;0.60;;;11.50;74.90;;;;;;4974858;28;20485;-74
2023/04/01 15:15:24;;;;;;;2.13;1.20;;;11.60;75.90;;;;;;4975377;28;20540;-73
2023/04/01 15:18:06;;;;;;;1.90;0.70;;;11.50;75.50;;;;;;4974824;28;20439;-74
2023/04/01 15:21:12;;;;;;;1.90;0.70;;;11.50;75.50;;;;;;4975100;28;20895;-73
2023/04/01 15:23:55;;;;;;;1.80;0.60;;;11.20;76.20;;;;;;4937708;29;20495;-74
2023/04/01 15:26:32;;;;;;;1.80;0.60;;;11.20;76.40;;;;;;4937876;29;20473;-73
2023/04/01 15:29:29;;;;;;;1.83;0.70;;;11.10;76.90;;;;;;4964981;28;20513;-73
2023/04/01 15:32:03;;;;;;;1.80;0.60;;;11.20;76.90;;;;;;4974960;28;20478;-73
2023/04/01 15:34:37;;;;;;;1.80;0.60;;;11.10;76.90;;;;;;4978580;28;20434;-73
2023/04/01 15:37:13;;;;;;;1.80;0.60;;;11.00;76.90;;;;;;4978324;28;20425;-74
2023/04/01 15:39:51;;;;;;;1.70;0.60;;;11.10;77.50;;;;;;4977912;28;20971;-74
2023/04/01 15:42:31;;;;;;;2.00;0.77;;;11.00;77.10;;;;;;4977878;28;21008;-75
2023/04/01 15:45:10;;;;;;;2.00;0.70;;;11.00;77.60;;;;;;4978424;28;20434;-74
2023/04/01 15:47:43;;;;;;;1.80;0.60;;;11.00;77.80;;;;;;4977847;28;20470;-74
2023/04/01 15:50:45;;;;;;;1.90;0.60;;;11.10;77.10;;;;;;4978428;28;20803;-74
2023/04/01 15:53:25;;;;;;;1.90;0.70;;;11.20;77.70;;;;;;4971181;28;20452;-73
2023/04/01 15:56:00;;;;;;;1.90;0.67;;;11.30;77.10;;;;;;4978229;28;20434;-73
2023/04/01 15:58:47;;;;;;;1.80;0.70;;;11.10;77.00;;;;;;4978481;28;20438;-73
2023/04/01 16:01:26;;;;;;;1.77;0.60;;;11.00;78.10;;;;;;4978203;28;20481;-72
2023/04/01 16:04:04;;;;;;;1.77;0.60;;;10.90;78.80;;;;;;4978233;28;20441;-72
2023/04/01 16:06:52;;;;;;;1.90;0.60;;;11.00;79.10;;;;;;4977698;28;20474;-73
2023/04/01 16:09:35;;;;;;;1.80;0.60;;;11.00;79.30;;;;;;4977606;28;20442;-73
2023/04/01 16:12:08;;;;;;;1.90;0.70;;;11.00;79.20;;;;;;4976926;28;21003;-72
2023/04/01 16:14:45;;;;;;;1.87;0.70;;;11.00;80.10;;;;;;4977269;28;20430;-73
2023/04/01 16:17:47;;;;;;;1.80;0.70;;;11.10;80.00;;;;;;4977225;28;20441;-72
2023/04/01 16:20:21;;;;;;;1.93;0.80;;;10.90;80.20;;;;;;4973410;28;20461;-73
2023/04/01 16:22:55;;;;;;;1.77;0.63;;;11.00;80.00;;;;;;4977027;28;20449;-72
2023/04/01 16:25:32;;;;;;;2.17;0.73;;;11.00;80.50;;;;;;4977062;28;20441;-72
2023/04/01 16:28:13;;;;;;;2.10;0.80;;;11.10;79.90;;;;;;4976905;28;20466;-72
2023/04/01 16:30:46;;;;;;;1.77;0.60;;;11.10;79.50;;;;;;4976826;28;20447;-72
2023/04/01 16:33:21;;;;;;;2.73;0.90;;;11.10;78.70;;;;;;4976838;28;20435;-72
2023/04/01 16:35:56;;;;;;;2.13;0.80;;;11.20;79.00;;;;;;4976826;28;20441;-73
2023/04/01 16:38:27;;;;;;;2.00;0.80;;;11.20;78.90;;;;;;4976632;28;20436;-73
2023/04/01 16:41:08;;;;;;;2.37;1.10;;;11.10;78.80;;;;;;4976370;28;21058;-72
2023/04/01 16:43:43;;;;;;;1.70;0.60;;;11.20;79.30;;;;;;4976742;28;20438;-73
2023/04/01 16:46:31;;;;;;;2.10;0.80;;;11.30;78.30;;;;;;4976925;28;20438;-73
2023/04/01 16:49:14;;;;;;;2.00;0.70;;;11.30;78.70;;;;;;4971263;28;20493;-73
2023/04/01 16:51:48;;;;;;;2.17;0.70;;;11.30;78.80;;;;;;4976998;28;20496;-73
2023/04/01 16:54:24;;;;;;;2.53;0.80;;;11.30;77.60;;;;;;4976728;28;20438;-73